Time;durP1;ratioP1;P1;durP2;ratioP2;P2;SDS_P1;SDS_P2;PMS_P1;PMS_P2;Temp;Humidity;BMP_temperature;BMP_pressure;BME280_temperature;BME280_humidity;BME280_pressure;Samples;Min_cycle;Max_cycle;Signal;HPM_P1;HPM_P2
2023/10/29 00:01:20;;;;;;;6.15;2.50;;;12.70;99.90;;;;;;5009105;28;20018;-49
2023/10/29 00:03:46;;;;;;;14.40;8.38;;;12.70;99.90;;;;;;5009418;28;20078;-52
2023/10/29 00:06:11;;;;;;;4.60;2.03;;;12.80;99.90;;;;;;5009479;28;20025;-49
2023/10/29 00:08:37;;;;;;;5.25;1.98;;;12.70;99.90;;;;;;5009290;28;20103;-50
2023/10/29 00:11:02;;;;;;;8.30;1.98;;;12.80;99.90;;;;;;5004658;28;20053;-49
2023/10/29 00:13:28;;;;;;;4.85;1.88;;;12.80;99.90;;;;;;4989606;28;20421;-52
2023/10/29 00:15:54;;;;;;;3.05;1.60;;;12.80;99.90;;;;;;4989779;28;20018;-48
2023/10/29 00:18:19;;;;;;;5.18;1.60;;;12.80;99.90;;;;;;4989485;28;20034;-47
2023/10/29 00:20:45;;;;;;;3.38;1.40;;;12.80;99.90;;;;;;4989935;28;20092;-52
2023/10/29 00:23:10;;;;;;;6.65;2.53;;;12.80;99.90;;;;;;4989687;28;20068;-51
2023/10/29 00:25:36;;;;;;;2.65;1.55;;;12.90;99.90;;;;;;4989618;28;20050;-47
2023/10/29 00:28:01;;;;;;;5.00;1.55;;;12.90;99.90;;;;;;4989341;28;20023;-49
2023/10/29 00:30:28;;;;;;;3.97;1.33;;;13.00;99.90;;;;;;4989381;28;20046;-48
2023/10/29 00:32:53;;;;;;;3.70;1.23;;;13.00;99.90;;;;;;4989617;28;20033;-50
2023/10/29 00:35:19;;;;;;;3.90;1.20;;;13.00;99.90;;;;;;4989560;28;20061;-48
2023/10/29 00:37:44;;;;;;;3.00;1.23;;;13.10;99.90;;;;;;4989614;28;20029;-49
2023/10/29 00:40:10;;;;;;;4.47;2.08;;;13.10;99.90;;;;;;4989550;28;20037;-48
2023/10/29 00:42:36;;;;;;;3.55;1.50;;;13.20;99.90;;;;;;4989482;28;20087;-49
2023/10/29 00:45:02;;;;;;;1.25;1.00;;;13.20;99.90;;;;;;4988116;28;20034;-51
2023/10/29 00:47:27;;;;;;;3.28;2.78;;;13.20;99.90;;;;;;4989393;28;20558;-53
2023/10/29 00:49:53;;;;;;;1.05;0.98;;;13.20;99.90;;;;;;4988124;28;20053;-48
2023/10/29 00:52:21;;;;;;;3.10;1.35;;;13.20;99.90;;;;;;4989383;28;20492;-48
2023/10/29 00:54:47;;;;;;;6.28;1.80;;;13.20;99.90;;;;;;4989350;28;20015;-48
2023/10/29 00:57:12;;;;;;;9.05;4.80;;;13.20;99.90;;;;;;4989363;28;20039;-46
2023/10/29 00:59:38;;;;;;;5.07;1.63;;;13.30;99.90;;;;;;4989107;28;20115;-48
2023/10/29 01:02:04;;;;;;;4.53;1.13;;;13.30;99.90;;;;;;4989249;28;20031;-46
2023/10/29 01:04:29;;;;;;;4.85;1.48;;;13.20;99.90;;;;;;4988064;28;20027;-47
2023/10/29 01:06:55;;;;;;;5.65;1.30;;;13.30;99.90;;;;;;4989456;28;20034;-49
2023/10/29 01:09:21;;;;;;;3.20;1.20;;;13.30;99.90;;;;;;4989363;28;20034;-50
2023/10/29 01:11:46;;;;;;;3.90;1.85;;;13.30;99.90;;;;;;4989575;28;20022;-51
2023/10/29 01:14:12;;;;;;;6.72;1.80;;;13.30;99.90;;;;;;4990515;28;20024;-50
2023/10/29 01:16:39;;;;;;;4.55;1.88;;;13.30;99.90;;;;;;4991140;28;20096;-51
2023/10/29 01:19:04;;;;;;;4.95;1.52;;;13.30;99.90;;;;;;4992603;28;20461;-49
2023/10/29 01:21:30;;;;;;;4.13;1.50;;;13.30;99.90;;;;;;4992548;28;20054;-47
2023/10/29 01:23:56;;;;;;;4.50;1.40;;;13.30;99.90;;;;;;4992524;28;20033;-52
2023/10/29 01:26:22;;;;;;;1.88;1.33;;;13.30;99.90;;;;;;4992887;28;20030;-47
2023/10/29 01:28:47;;;;;;;2.58;1.40;;;13.30;99.90;;;;;;4992478;28;20061;-47
2023/10/29 01:31:13;;;;;;;3.80;1.33;;;13.30;99.90;;;;;;4992360;28;20394;-49
2023/10/29 01:33:39;;;;;;;3.45;1.20;;;13.30;99.90;;;;;;4992483;28;20494;-52
2023/10/29 01:36:06;;;;;;;1.20;1.10;;;13.30;99.90;;;;;;4992315;28;20026;-48
2023/10/29 01:38:32;;;;;;;3.58;1.52;;;13.30;99.90;;;;;;4991944;28;20027;-50
2023/10/29 01:40:57;;;;;;;1.95;1.00;;;13.40;99.90;;;;;;4991921;28;20026;-53
2023/10/29 01:43:23;;;;;;;4.25;1.40;;;13.30;99.90;;;;;;4992061;28;20069;-47
2023/10/29 01:45:49;;;;;;;1.90;1.35;;;13.30;99.90;;;;;;4992208;28;20018;-49
2023/10/29 01:48:16;;;;;;;1.25;1.10;;;13.40;99.90;;;;;;4992091;28;20072;-47
2023/10/29 01:50:41;;;;;;;2.42;1.20;;;13.40;99.90;;;;;;4992321;28;20023;-50
2023/10/29 01:53:07;;;;;;;4.57;1.30;;;13.40;99.90;;;;;;4992270;28;20417;-48
2023/10/29 01:55:38;;;;;;;2.17;1.23;;;13.40;99.90;;;;;;4991957;28;20030;-47
2023/10/29 01:58:04;;;;;;;2.15;1.75;;;13.50;99.90;;;;;;4991587;28;20038;-49
2023/10/29 02:00:30;;;;;;;4.07;1.60;;;13.50;99.90;;;;;;4991884;28;20494;-48
2023/10/29 02:02:55;;;;;;;6.03;1.90;;;13.50;99.90;;;;;;4991862;28;20034;-48
2023/10/29 02:05:21;;;;;;;2.00;1.23;;;13.50;99.90;;;;;;4991894;28;20034;-49
2023/10/29 02:07:47;;;;;;;3.25;1.20;;;13.40;99.90;;;;;;4991777;28;20107;-47
2023/10/29 02:10:12;;;;;;;4.55;2.80;;;13.40;99.90;;;;;;4991649;28;20022;-52
2023/10/29 02:12:38;;;;;;;1.25;1.13;;;13.40;99.90;;;;;;4991786;28;20029;-46
2023/10/29 02:15:04;;;;;;;3.80;1.20;;;13.40;99.90;;;;;;4991900;28;20508;-51
2023/10/29 02:17:30;;;;;;;8.85;1.63;;;13.30;99.90;;;;;;4991636;28;20050;-50
2023/10/29 02:19:57;;;;;;;4.57;1.48;;;13.30;99.90;;;;;;4991605;28;20065;-49
2023/10/29 02:22:23;;;;;;;2.35;1.63;;;13.40;99.90;;;;;;4991579;28;20058;-50
2023/10/29 02:24:49;;;;;;;3.15;1.77;;;13.40;99.90;;;;;;4990806;28;20152;-50
2023/10/29 02:27:14;;;;;;;6.55;1.67;;;13.30;99.90;;;;;;4991582;28;20549;-49
2023/10/29 02:29:40;;;;;;;2.88;1.20;;;13.30;99.90;;;;;;4991377;28;20489;-50
2023/10/29 02:32:06;;;;;;;2.00;1.25;;;13.40;99.90;;;;;;4991587;28;20148;-47
2023/10/29 02:34:31;;;;;;;2.33;1.27;;;13.40;99.90;;;;;;4991416;28;20035;-46
2023/10/29 02:36:57;;;;;;;6.18;1.60;;;13.40;99.90;;;;;;4990092;28;20022;-51
2023/10/29 02:39:22;;;;;;;6.57;1.70;;;13.40;99.90;;;;;;4991340;28;20079;-47
2023/10/29 02:41:48;;;;;;;2.22;1.52;;;13.40;99.90;;;;;;4991461;28;20053;-48
2023/10/29 02:44:14;;;;;;;1.75;1.40;;;13.40;99.90;;;;;;4973968;28;20067;-51
2023/10/29 02:46:39;;;;;;;2.75;1.50;;;13.40;99.90;;;;;;4991380;28;20022;-48
2023/10/29 02:49:05;;;;;;;1.67;1.30;;;13.40;99.90;;;;;;4991460;28;20067;-48
2023/10/29 02:51:30;;;;;;;2.30;1.23;;;13.40;99.90;;;;;;4991753;28;20025;-51
2023/10/29 02:53:56;;;;;;;2.38;1.40;;;13.50;99.90;;;;;;4991447;28;20068;-54
2023/10/29 02:56:21;;;;;;;1.10;1.00;;;13.50;99.90;;;;;;4991385;28;20490;-50
2023/10/29 02:58:47;;;;;;;1.50;1.20;;;13.50;99.90;;;;;;4989764;28;20042;-47
2023/10/29 03:01:15;;;;;;;2.47;1.40;;;13.50;99.90;;;;;;4991367;28;20146;-47
2023/10/29 03:03:41;;;;;;;1.27;1.17;;;13.50;99.90;;;;;;4990968;28;20026;-47
2023/10/29 03:06:08;;;;;;;1.40;1.30;;;13.50;99.90;;;;;;4990980;28;20079;-47
2023/10/29 03:08:35;;;;;;;1.48;1.38;;;13.50;99.90;;;;;;4990617;28;20493;-48
2023/10/29 03:11:01;;;;;;;2.75;1.60;;;13.50;99.90;;;;;;4991010;28;20027;-53
2023/10/29 03:13:26;;;;;;;2.60;1.90;;;13.50;99.90;;;;;;4990851;28;20076;-50
2023/10/29 03:15:52;;;;;;;2.22;1.48;;;13.50;99.90;;;;;;4990895;28;20586;-49
2023/10/29 03:18:18;;;;;;;3.67;1.38;;;13.50;99.90;;;;;;4990580;28;20030;-48
2023/10/29 03:20:43;;;;;;;4.03;1.85;;;13.50;99.90;;;;;;4990826;28;20045;-48
2023/10/29 03:23:09;;;;;;;3.78;2.08;;;13.50;99.90;;;;;;4990825;28;20489;-51
2023/10/29 03:25:35;;;;;;;2.67;1.73;;;13.50;99.90;;;;;;4990801;28;20030;-47
2023/10/29 03:28:00;;;;;;;2.70;1.67;;;13.40;99.90;;;;;;4990494;28;20030;-47
2023/10/29 03:30:26;;;;;;;4.97;1.58;;;13.50;99.90;;;;;;4990605;28;20037;-49
2023/10/29 03:32:52;;;;;;;3.65;1.52;;;13.40;99.90;;;;;;4989456;28;20111;-47
2023/10/29 03:35:17;;;;;;;1.10;1.10;;;13.50;99.90;;;;;;4990334;28;20062;-47
2023/10/29 03:37:43;;;;;;;2.28;1.20;;;13.40;99.90;;;;;;4990433;28;20026;-51
2023/10/29 03:40:09;;;;;;;3.13;1.70;;;13.50;99.90;;;;;;4990512;28;20347;-50
2023/10/29 03:42:34;;;;;;;2.95;1.58;;;13.30;99.90;;;;;;4990239;28;20520;-48
2023/10/29 03:45:00;;;;;;;5.15;2.03;;;13.30;99.90;;;;;;4990508;28;20102;-47
2023/10/29 03:47:25;;;;;;;4.90;1.88;;;13.30;99.90;;;;;;4990391;28;20034;-47
2023/10/29 03:49:51;;;;;;;1.75;1.45;;;13.30;99.90;;;;;;4990190;28;20569;-47
2023/10/29 03:52:19;;;;;;;7.50;2.38;;;13.30;99.90;;;;;;4990394;28;20026;-48
2023/10/29 03:54:45;;;;;;;6.28;2.42;;;13.20;99.90;;;;;;4990232;28;20482;-49
2023/10/29 03:57:10;;;;;;;5.28;1.98;;;13.20;99.90;;;;;;4990142;28;20037;-49
2023/10/29 03:59:36;;;;;;;6.32;1.90;;;13.10;99.90;;;;;;4989896;28;20378;-52
2023/10/29 04:02:02;;;;;;;2.53;1.92;;;13.00;99.90;;;;;;4990331;28;20037;-49
2023/10/29 04:04:27;;;;;;;5.93;2.30;;;13.10;99.90;;;;;;4989979;28;20034;-50
2023/10/29 04:06:53;;;;;;;3.17;1.60;;;13.10;99.90;;;;;;4989928;28;20022;-48
2023/10/29 04:09:18;;;;;;;2.03;1.77;;;13.00;99.90;;;;;;4989800;28;20038;-49
2023/10/29 04:11:44;;;;;;;3.17;1.45;;;13.00;99.90;;;;;;4988849;28;20020;-46
2023/10/29 04:14:09;;;;;;;4.15;1.85;;;13.00;99.90;;;;;;4989918;28;20034;-47
2023/10/29 04:16:35;;;;;;;1.83;1.50;;;13.00;99.90;;;;;;4990000;28;20054;-49
2023/10/29 04:19:00;;;;;;;4.03;1.20;;;13.00;99.90;;;;;;4988571;28;20117;-51
2023/10/29 04:21:26;;;;;;;3.90;2.00;;;13.00;99.90;;;;;;4989931;28;20026;-49
2023/10/29 04:23:52;;;;;;;5.18;1.30;;;13.00;99.90;;;;;;4989755;28;20058;-49
2023/10/29 04:26:18;;;;;;;2.72;1.95;;;13.10;99.90;;;;;;4989698;28;20039;-47
2023/10/29 04:28:43;;;;;;;5.53;1.67;;;13.10;99.90;;;;;;4989694;28;20405;-49
2023/10/29 04:31:09;;;;;;;1.55;1.05;;;13.20;99.90;;;;;;4988463;28;20505;-51
2023/10/29 04:33:34;;;;;;;3.65;1.20;;;13.20;99.90;;;;;;4989573;28;20123;-46
2023/10/29 04:36:00;;;;;;;2.15;1.30;;;13.20;99.90;;;;;;4989542;28;20038;-49
2023/10/29 04:38:26;;;;;;;2.28;1.45;;;13.20;99.90;;;;;;4989393;28;20022;-47
2023/10/29 04:40:51;;;;;;;4.05;1.30;;;13.30;99.90;;;;;;4989253;28;20026;-47
2023/10/29 04:43:17;;;;;;;2.53;1.52;;;13.30;99.90;;;;;;4988534;28;20037;-48
2023/10/29 04:45:42;;;;;;;3.10;1.58;;;13.30;99.90;;;;;;4989625;28;20030;-47
2023/10/29 04:48:08;;;;;;;3.53;1.25;;;13.30;99.90;;;;;;4987013;28;20109;-53
2023/10/29 04:50:33;;;;;;;4.70;1.73;;;13.30;99.90;;;;;;4989386;28;20050;-50
2023/10/29 04:53:00;;;;;;;2.25;1.33;;;13.40;99.90;;;;;;4988049;28;20505;-49
2023/10/29 04:55:27;;;;;;;3.05;1.05;;;13.30;99.90;;;;;;4989102;28;20029;-48
2023/10/29 04:57:53;;;;;;;4.00;1.70;;;13.30;99.90;;;;;;5006438;23;20084;-51
2023/10/29 05:00:18;;;;;;;1.92;1.58;;;13.30;99.90;;;;;;4964969;28;20023;-53
2023/10/29 05:02:44;;;;;;;2.25;1.15;;;13.30;99.90;;;;;;4981068;28;20019;-53
2023/10/29 05:05:11;;;;;;;3.45;1.52;;;13.30;99.90;;;;;;4980844;28;20428;-52
2023/10/29 05:07:36;;;;;;;3.80;1.60;;;13.20;99.90;;;;;;4982418;28;20084;-55
2023/10/29 05:10:06;;;;;;;3.22;1.80;;;13.20;99.90;;;;;;4980538;28;20066;-53
2023/10/29 05:12:31;;;;;;;2.80;1.83;;;13.20;99.90;;;;;;4981174;28;20091;-54
2023/10/29 05:14:57;;;;;;;2.58;1.45;;;13.10;99.90;;;;;;4981473;28;20031;-56
2023/10/29 05:17:22;;;;;;;2.00;1.55;;;13.00;99.90;;;;;;4981153;28;20030;-57
2023/10/29 05:19:48;;;;;;;5.85;1.35;;;12.90;99.90;;;;;;4982079;28;20031;-55
2023/10/29 05:22:14;;;;;;;2.78;1.52;;;12.80;99.90;;;;;;4981853;28;20050;-55
2023/10/29 05:24:39;;;;;;;6.63;1.80;;;12.60;99.90;;;;;;4980716;28;20035;-55
2023/10/29 05:27:05;;;;;;;4.72;1.77;;;12.50;99.90;;;;;;4980652;28;20027;-54
2023/10/29 05:29:32;;;;;;;3.05;1.90;;;12.50;99.90;;;;;;4980173;28;20038;-55
2023/10/29 05:31:58;;;;;;;4.75;1.60;;;12.40;99.90;;;;;;4983736;28;20019;-54
2023/10/29 05:34:23;;;;;;;3.28;2.10;;;12.40;99.90;;;;;;4986291;28;20060;-56
2023/10/29 05:36:49;;;;;;;5.40;2.20;;;12.40;99.90;;;;;;4986014;28;20041;-56
2023/10/29 05:39:15;;;;;;;1.73;1.52;;;12.40;99.90;;;;;;4986073;28;20046;-56
2023/10/29 05:41:41;;;;;;;4.00;1.90;;;12.40;99.90;;;;;;4984254;28;20031;-54
2023/10/29 05:44:06;;;;;;;4.00;1.50;;;12.40;99.90;;;;;;4983003;28;20389;-53
2023/10/29 05:46:32;;;;;;;1.77;1.45;;;12.40;99.90;;;;;;4984520;28;20098;-54
2023/10/29 05:48:58;;;;;;;7.82;1.70;;;12.50;99.90;;;;;;4981289;28;20042;-52
2023/10/29 05:51:24;;;;;;;2.30;1.60;;;12.40;99.90;;;;;;4980938;28;20486;-53
2023/10/29 05:53:49;;;;;;;2.67;1.30;;;12.50;99.90;;;;;;4982518;28;20047;-51
2023/10/29 05:56:17;;;;;;;2.83;1.52;;;12.40;99.90;;;;;;4981471;28;20386;-56
2023/10/29 05:58:43;;;;;;;1.50;1.40;;;12.40;99.90;;;;;;4980693;28;20520;-56
2023/10/29 06:01:10;;;;;;;5.15;1.58;;;12.50;99.90;;;;;;4983779;28;20019;-52
2023/10/29 06:03:41;;;;;;;3.50;1.50;;;12.50;99.90;;;;;;4984413;28;20060;-53
2023/10/29 06:06:07;;;;;;;3.97;1.58;;;12.60;99.90;;;;;;4983595;28;20027;-55
2023/10/29 06:08:32;;;;;;;2.28;1.42;;;12.60;99.90;;;;;;4984356;28;20037;-54
2023/10/29 06:10:59;;;;;;;2.83;1.20;;;12.60;99.90;;;;;;4982190;28;20089;-55
2023/10/29 06:13:25;;;;;;;5.65;1.67;;;12.60;99.90;;;;;;4980379;28;20027;-54
2023/10/29 06:15:51;;;;;;;3.80;1.40;;;12.60;99.90;;;;;;4984794;28;20023;-53
2023/10/29 06:18:16;;;;;;;3.05;1.63;;;12.60;99.90;;;;;;4984488;28;20027;-52
2023/10/29 06:20:43;;;;;;;5.40;1.63;;;12.60;99.90;;;;;;4983917;28;20031;-53
2023/10/29 06:23:09;;;;;;;4.63;2.33;;;12.60;99.90;;;;;;4982964;28;20291;-51
2023/10/29 06:25:35;;;;;;;3.65;1.70;;;12.50;99.90;;;;;;4984113;28;20027;-49
2023/10/29 06:28:03;;;;;;;2.00;1.80;;;12.50;99.90;;;;;;4982707;28;20094;-55
2023/10/29 06:30:29;;;;;;;3.42;1.85;;;12.50;99.90;;;;;;4983318;28;20035;-55
2023/10/29 06:32:54;;;;;;;3.50;1.77;;;12.40;99.90;;;;;;4984332;28;20136;-54
2023/10/29 06:35:23;;;;;;;3.08;1.60;;;12.40;99.90;;;;;;4984379;28;20080;-56
2023/10/29 06:37:48;;;;;;;5.03;2.22;;;12.40;99.90;;;;;;4982243;28;20035;-53
2023/10/29 06:40:14;;;;;;;2.05;1.30;;;12.40;99.90;;;;;;4982937;28;20039;-52
2023/10/29 06:42:39;;;;;;;1.92;1.65;;;12.40;99.90;;;;;;4984481;28;20618;-53
2023/10/29 06:45:06;;;;;;;5.57;1.70;;;12.50;99.90;;;;;;4984264;28;20101;-55
2023/10/29 06:47:31;;;;;;;2.92;1.65;;;12.50;99.90;;;;;;4984107;28;20034;-55
2023/10/29 06:49:57;;;;;;;1.70;1.60;;;12.50;99.90;;;;;;4982795;28;20027;-52
2023/10/29 06:52:22;;;;;;;2.83;1.35;;;12.50;99.90;;;;;;4983843;28;20401;-55
2023/10/29 06:54:48;;;;;;;6.05;1.65;;;12.50;99.90;;;;;;4984112;28;20090;-55
2023/10/29 06:57:13;;;;;;;3.90;1.33;;;12.60;99.90;;;;;;4983462;28;20054;-52
2023/10/29 06:59:39;;;;;;;2.42;1.60;;;12.70;99.90;;;;;;4982177;28;20034;-53
2023/10/29 07:02:06;;;;;;;2.08;1.58;;;12.80;99.90;;;;;;4981623;28;20030;-57
2023/10/29 07:04:32;;;;;;;3.95;1.58;;;12.90;99.90;;;;;;4983171;28;20023;-50
2023/10/29 07:06:57;;;;;;;2.47;1.63;;;13.00;99.90;;;;;;4983794;28;20041;-54
2023/10/29 07:09:23;;;;;;;3.80;1.50;;;13.00;99.90;;;;;;4982223;28;20023;-52
2023/10/29 07:11:49;;;;;;;6.53;3.97;;;12.90;99.90;;;;;;4982977;28;20031;-56
2023/10/29 07:14:15;;;;;;;4.30;1.75;;;12.90;99.90;;;;;;4983799;28;20066;-53
2023/10/29 07:16:44;;;;;;;3.42;1.65;;;12.90;99.90;;;;;;4984038;28;20047;-56
2023/10/29 07:19:13;;;;;;;3.47;1.90;;;12.90;99.90;;;;;;4982002;28;20030;-53
2023/10/29 07:21:40;;;;;;;2.80;1.45;;;12.90;99.90;;;;;;4983104;28;20079;-57
2023/10/29 07:24:06;;;;;;;3.05;1.55;;;12.80;99.90;;;;;;4982218;28;20037;-55
2023/10/29 07:26:33;;;;;;;2.53;1.67;;;12.90;99.90;;;;;;4983162;28;20031;-58
2023/10/29 07:28:59;;;;;;;2.58;1.50;;;12.90;99.90;;;;;;4982209;28;20033;-56
2023/10/29 07:31:24;;;;;;;3.13;1.38;;;12.90;99.90;;;;;;4983065;28;20019;-57
2023/10/29 07:33:51;;;;;;;6.88;1.88;;;12.90;99.90;;;;;;4983778;28;20393;-55
2023/10/29 07:36:17;;;;;;;6.38;1.75;;;12.90;99.90;;;;;;4982672;28;20101;-55
2023/10/29 07:38:43;;;;;;;3.92;1.67;;;12.90;99.90;;;;;;4983604;28;20031;-53
2023/10/29 07:41:09;;;;;;;2.78;1.50;;;13.00;99.90;;;;;;4983720;28;20048;-56
2023/10/29 07:43:34;;;;;;;3.55;2.20;;;13.10;99.90;;;;;;4983153;28;20113;-56
2023/10/29 07:46:04;;;;;;;1.75;1.58;;;13.10;99.90;;;;;;4982387;28;20030;-57
2023/10/29 07:48:29;;;;;;;2.78;1.90;;;13.10;99.90;;;;;;4981323;28;20106;-51
2023/10/29 07:50:55;;;;;;;4.00;2.17;;;13.20;99.90;;;;;;4982632;28;20019;-53
2023/10/29 07:53:21;;;;;;;2.60;2.05;;;13.20;99.90;;;;;;4982559;28;20026;-57
2023/10/29 07:55:47;;;;;;;5.25;1.63;;;13.20;99.90;;;;;;4982215;28;20046;-57
2023/10/29 07:58:12;;;;;;;6.43;2.70;;;13.20;99.90;;;;;;4982662;28;20039;-52
2023/10/29 08:00:38;;;;;;;3.03;2.22;;;13.20;99.90;;;;;;4982098;28;20058;-56
2023/10/29 08:03:04;;;;;;;3.85;1.55;;;13.30;99.90;;;;;;4982519;28;20027;-55
2023/10/29 08:05:30;;;;;;;3.25;1.90;;;13.20;99.90;;;;;;4983011;28;20023;-56
2023/10/29 08:07:56;;;;;;;1.58;1.35;;;14.10;99.90;;;;;;4981461;28;20077;-56
2023/10/29 08:10:23;;;;;;;3.35;1.73;;;13.30;99.90;;;;;;4983139;28;20144;-57
2023/10/29 08:12:49;;;;;;;3.72;1.95;;;13.30;99.90;;;;;;4982627;28;20048;-56
2023/10/29 08:15:14;;;;;;;1.30;1.20;;;13.40;99.90;;;;;;4982958;28;20379;-54
2023/10/29 08:17:40;;;;;;;1.73;1.58;;;13.40;99.90;;;;;;4983582;28;20023;-55
2023/10/29 08:20:06;;;;;;;1.55;1.15;;;13.50;99.90;;;;;;4981819;28;20034;-55
2023/10/29 08:22:32;;;;;;;8.40;2.20;;;13.50;99.90;;;;;;4982113;28;20034;-53
2023/10/29 08:25:02;;;;;;;5.38;1.60;;;13.60;99.90;;;;;;4982886;28;20494;-54
2023/10/29 08:27:27;;;;;;;2.40;1.67;;;13.60;99.90;;;;;;4982625;28;20027;-57
2023/10/29 08:29:53;;;;;;;3.20;1.40;;;13.60;99.90;;;;;;4977381;28;20034;-55
2023/10/29 08:32:19;;;;;;;4.57;2.35;;;13.60;99.90;;;;;;4978773;28;20114;-55
2023/10/29 08:34:45;;;;;;;1.55;1.45;;;13.70;99.90;;;;;;4981994;28;20034;-55
2023/10/29 08:37:10;;;;;;;6.18;1.75;;;13.70;99.90;;;;;;4977240;28;20022;-55
2023/10/29 08:39:36;;;;;;;4.80;1.80;;;13.70;99.90;;;;;;4975310;28;20042;-57
2023/10/29 08:42:02;;;;;;;2.95;1.60;;;13.80;99.90;;;;;;4975284;28;20031;-52
2023/10/29 08:44:28;;;;;;;2.33;1.52;;;13.90;99.90;;;;;;4978262;28;20114;-51
2023/10/29 08:46:54;;;;;;;2.30;2.10;;;13.90;99.90;;;;;;4979755;28;20026;-56
2023/10/29 08:49:19;;;;;;;4.60;1.90;;;14.30;99.90;;;;;;4979528;28;20033;-50
2023/10/29 08:51:45;;;;;;;2.42;1.30;;;14.00;99.90;;;;;;4978475;28;20027;-57
2023/10/29 08:54:11;;;;;;;3.20;1.48;;;14.50;99.90;;;;;;4977625;28;20393;-56
2023/10/29 08:56:36;;;;;;;3.08;1.52;;;14.00;99.90;;;;;;4980110;28;20054;-53
2023/10/29 08:59:07;;;;;;;2.35;1.55;;;14.10;99.90;;;;;;4981476;28;20522;-55
2023/10/29 09:01:33;;;;;;;3.30;1.75;;;14.20;99.90;;;;;;4981124;28;20035;-54
2023/10/29 09:03:59;;;;;;;2.90;1.45;;;14.30;99.90;;;;;;4981795;28;20086;-56
2023/10/29 09:06:25;;;;;;;4.00;1.90;;;14.20;99.90;;;;;;4980311;28;20030;-52
2023/10/29 09:08:51;;;;;;;4.65;1.40;;;14.20;99.90;;;;;;4980538;28;20045;-55
2023/10/29 09:11:17;;;;;;;4.90;1.60;;;14.30;99.90;;;;;;4980377;28;20022;-51
2023/10/29 09:13:42;;;;;;;2.75;1.52;;;14.30;99.90;;;;;;4982434;28;20082;-54
2023/10/29 09:16:08;;;;;;;11.05;2.75;;;14.30;99.90;;;;;;4980966;28;20045;-58
2023/10/29 09:18:34;;;;;;;3.10;1.48;;;14.40;99.90;;;;;;4976904;28;20019;-49
2023/10/29 09:21:00;;;;;;;4.72;1.48;;;14.50;99.90;;;;;;4977271;28;20037;-58
2023/10/29 09:23:27;;;;;;;3.38;1.65;;;14.50;99.90;;;;;;4981783;28;20019;-57
2023/10/29 09:25:52;;;;;;;1.90;1.30;;;14.50;99.90;;;;;;4980466;28;20023;-57
2023/10/29 09:28:20;;;;;;;2.05;1.30;;;14.50;99.90;;;;;;4978380;28;20026;-58
2023/10/29 09:30:46;;;;;;;4.05;1.40;;;14.50;99.90;;;;;;4979279;28;20440;-57
2023/10/29 09:33:13;;;;;;;2.05;1.60;;;14.50;99.90;;;;;;4980264;28;20094;-56
2023/10/29 09:35:39;;;;;;;4.55;1.75;;;14.40;99.90;;;;;;4984017;28;20022;-59
2023/10/29 09:38:05;;;;;;;1.48;1.13;;;14.40;99.90;;;;;;4984329;28;20078;-55
2023/10/29 09:40:31;;;;;;;1.58;1.45;;;14.40;99.90;;;;;;4980075;28;20069;-59
2023/10/29 09:43:08;;;;;;;2.00;1.27;;;14.40;99.90;;;;;;4984299;28;20086;-55
2023/10/29 09:45:45;;;;;;;2.50;1.55;;;14.40;99.90;;;;;;4982230;28;20062;-53
2023/10/29 09:48:11;;;;;;;6.13;2.13;;;14.30;99.90;;;;;;4982936;28;20034;-55
2023/10/29 09:50:37;;;;;;;2.40;1.70;;;14.30;99.90;;;;;;4982284;28;20023;-57
2023/10/29 09:53:04;;;;;;;2.45;1.38;;;14.30;99.90;;;;;;4981077;28;20066;-58
2023/10/29 09:55:33;;;;;;;2.60;1.45;;;14.30;99.90;;;;;;4982511;28;20133;-57
2023/10/29 09:57:59;;;;;;;3.72;1.60;;;14.30;99.90;;;;;;4982359;28;20023;-55
2023/10/29 10:00:25;;;;;;;3.28;1.88;;;14.30;99.90;;;;;;4983842;28;20037;-56
2023/10/29 10:02:57;;;;;;;2.65;2.10;;;14.30;99.90;;;;;;4983014;28;20095;-56
2023/10/29 10:05:29;;;;;;;2.65;1.77;;;14.30;99.90;;;;;;4964436;28;20035;-55
2023/10/29 10:07:56;;;;;;;2.70;2.10;;;14.30;99.90;;;;;;4973731;28;20414;-54
2023/10/29 10:10:35;;;;;;;2.78;1.48;;;14.30;99.90;;;;;;4983425;28;20106;-58
2023/10/29 10:13:01;;;;;;;2.53;1.55;;;14.30;99.90;;;;;;4981710;28;20018;-55
2023/10/29 10:15:27;;;;;;;1.85;1.50;;;14.30;99.90;;;;;;4981844;28;20032;-55
2023/10/29 10:18:00;;;;;;;4.13;2.08;;;14.30;99.90;;;;;;4983369;28;20039;-53
2023/10/29 10:20:26;;;;;;;4.00;1.75;;;14.40;99.90;;;;;;4983652;28;20027;-53
2023/10/29 10:23:02;;;;;;;2.45;1.67;;;14.40;99.90;;;;;;4981297;28;20034;-56
2023/10/29 10:25:29;;;;;;;3.78;1.50;;;14.40;99.90;;;;;;4982743;28;20027;-55
2023/10/29 10:27:58;;;;;;;4.93;1.77;;;14.40;99.90;;;;;;4981245;28;20038;-52
2023/10/29 10:30:27;;;;;;;5.07;1.98;;;14.30;99.90;;;;;;4982197;28;20062;-56
2023/10/29 10:32:53;;;;;;;4.90;1.70;;;14.30;99.90;;;;;;4977952;28;20038;-57
2023/10/29 10:35:19;;;;;;;4.97;1.70;;;14.30;99.90;;;;;;4976605;28;20022;-57
2023/10/29 10:37:55;;;;;;;3.95;1.70;;;14.30;99.90;;;;;;4979433;28;20398;-50
2023/10/29 10:40:26;;;;;;;2.88;1.85;;;14.20;99.90;;;;;;4976403;28;20098;-51
2023/10/29 10:42:56;;;;;;;12.02;5.97;;;14.20;99.90;;;;;;4970156;28;20038;-54
2023/10/29 10:45:28;;;;;;;4.68;3.47;;;14.30;99.90;;;;;;5026003;28;20162;-50
2023/10/29 10:47:58;;;;;;;3.83;1.83;;;14.30;99.90;;;;;;5044916;28;20037;-52
2023/10/29 10:50:27;;;;;;;3.63;1.65;;;14.20;99.90;;;;;;5003892;28;20023;-52
2023/10/29 10:52:54;;;;;;;3.85;1.80;;;14.20;99.90;;;;;;4966562;28;20034;-52
2023/10/29 10:55:21;;;;;;;2.65;1.83;;;14.20;99.90;;;;;;4970421;28;20027;-49
2023/10/29 10:57:49;;;;;;;3.50;1.77;;;14.20;99.90;;;;;;4960553;28;20106;-48
2023/10/29 11:00:17;;;;;;;2.42;1.83;;;14.10;99.90;;;;;;4954005;29;20170;-48
2023/10/29 11:02:43;;;;;;;1.90;1.70;;;14.10;99.90;;;;;;4952423;29;20491;-50
2023/10/29 11:05:15;;;;;;;5.05;2.08;;;14.10;99.90;;;;;;4953513;29;20061;-50
2023/10/29 11:07:42;;;;;;;5.13;2.20;;;14.10;99.90;;;;;;4952818;28;20118;-52
2023/10/29 11:10:11;;;;;;;4.40;1.95;;;14.10;99.90;;;;;;4965732;28;20494;-51
2023/10/29 11:12:38;;;;;;;2.92;1.80;;;14.10;99.90;;;;;;4972297;28;20023;-50
2023/10/29 11:15:19;;;;;;;2.75;1.60;;;14.00;99.90;;;;;;4972644;28;20023;-55
2023/10/29 11:17:58;;;;;;;1.92;1.70;;;14.00;99.90;;;;;;4972136;28;20019;-49
2023/10/29 11:20:36;;;;;;;5.72;1.73;;;14.00;99.90;;;;;;4970815;28;20023;-50
2023/10/29 11:23:29;;;;;;;2.10;1.48;;;13.90;99.90;;;;;;4971454;28;20138;-53
2023/10/29 11:26:17;;;;;;;2.85;1.30;;;13.90;99.90;;;;;;4970526;28;20463;-53
2023/10/29 11:28:44;;;;;;;2.25;1.35;;;13.90;99.90;;;;;;4971406;28;20027;-53
2023/10/29 11:31:12;;;;;;;3.92;1.30;;;13.90;99.90;;;;;;4971933;28;20023;-52
2023/10/29 11:33:39;;;;;;;1.95;1.17;;;13.90;99.90;;;;;;4971583;28;20019;-49
2023/10/29 11:36:32;;;;;;;2.80;1.20;;;13.90;99.90;;;;;;4971390;28;20033;-51
2023/10/29 11:39:16;;;;;;;1.38;1.23;;;13.90;99.90;;;;;;4971392;28;20037;-52
2023/10/29 11:41:46;;;;;;;4.93;3.20;;;13.90;99.90;;;;;;4969626;28;20437;-54
2023/10/29 11:44:21;;;;;;;6.68;4.25;;;13.90;99.90;;;;;;4968932;28;20494;-50
2023/10/29 11:46:59;;;;;;;5.25;2.05;;;13.80;99.90;;;;;;4956670;28;20121;-50
2023/10/29 11:49:26;;;;;;;2.13;1.25;;;13.90;99.90;;;;;;4969415;28;20568;-54
2023/10/29 11:51:56;;;;;;;1.30;1.20;;;13.90;99.90;;;;;;5078854;28;20531;-56
2023/10/29 11:54:22;;;;;;;5.25;1.30;;;13.90;99.90;;;;;;4978477;28;20011;-56
2023/10/29 11:56:49;;;;;;;4.50;1.55;;;13.90;99.90;;;;;;4984289;28;20038;-59
2023/10/29 11:59:15;;;;;;;2.03;1.58;;;13.90;99.90;;;;;;4984782;28;20041;-57
2023/10/29 12:01:43;;;;;;;1.50;1.40;;;13.90;99.90;;;;;;4985824;28;20086;-58
2023/10/29 12:04:09;;;;;;;4.97;2.00;;;13.80;99.90;;;;;;4980556;28;20038;-49
2023/10/29 12:06:43;;;;;;;6.53;1.73;;;13.80;99.90;;;;;;4980490;28;20019;-53
2023/10/29 12:09:16;;;;;;;2.15;1.95;;;13.80;99.90;;;;;;4979695;28;20074;-54
2023/10/29 12:11:42;;;;;;;2.10;2.00;;;13.80;99.90;;;;;;4983142;28;20026;-55
2023/10/29 12:14:07;;;;;;;6.90;2.17;;;13.80;99.90;;;;;;4982826;28;20038;-52
2023/10/29 12:16:34;;;;;;;2.45;2.10;;;13.80;99.90;;;;;;4981357;28;20042;-55
2023/10/29 12:18:59;;;;;;;4.95;2.05;;;13.70;99.90;;;;;;4982600;28;20034;-55
2023/10/29 12:21:25;;;;;;;2.85;2.08;;;13.70;99.90;;;;;;4981680;28;20068;-54
2023/10/29 12:23:51;;;;;;;2.30;2.10;;;13.70;99.90;;;;;;4981522;28;20165;-56
2023/10/29 12:26:18;;;;;;;2.65;1.63;;;13.70;99.90;;;;;;4982760;28;20118;-58
2023/10/29 12:28:44;;;;;;;5.07;2.08;;;13.60;99.90;;;;;;4982446;28;20042;-54
2023/10/29 12:31:26;;;;;;;3.67;2.17;;;13.60;99.90;;;;;;4981826;28;20027;-54
2023/10/29 12:33:58;;;;;;;4.32;1.85;;;13.60;99.90;;;;;;4982490;28;20027;-56
2023/10/29 12:36:26;;;;;;;36.80;27.48;;;13.60;99.90;;;;;;4981520;28;20023;-54
2023/10/29 12:38:52;;;;;;;61.35;40.22;;;13.60;99.90;;;;;;4982750;28;20030;-58
2023/10/29 12:41:21;;;;;;;6.88;3.03;;;13.60;99.90;;;;;;4982037;28;20022;-53
2023/10/29 12:43:52;;;;;;;3.55;2.38;;;14.30;99.90;;;;;;4982598;28;20029;-51